createdAt,value
2022-12-27T06:49:39.604Z,2.80
2022-12-27T06:52:41.674Z,3.00
2022-12-27T06:55:43.369Z,3.30
2022-12-27T06:58:48.124Z,3.50
2022-12-27T07:01:49.955Z,3.50
2022-12-27T07:04:51.785Z,3.60
2022-12-27T07:07:54.613Z,3.60
2022-12-27T07:11:02.014Z,3.60
2022-12-27T07:14:04.233Z,3.70
2022-12-27T07:17:05.872Z,3.70
2022-12-27T07:20:08.239Z,3.80
2022-12-27T07:23:13.113Z,3.80
2022-12-27T07:26:22.479Z,3.90
2022-12-27T07:29:24.053Z,3.90
2022-12-27T07:32:25.686Z,3.80
2022-12-27T07:35:27.571Z,3.60
2022-12-27T07:38:29.293Z,3.60
2022-12-27T07:41:31.184Z,3.60
2022-12-27T07:44:32.830Z,3.50
2022-12-27T07:47:34.589Z,3.50
2022-12-27T07:50:36.248Z,3.60
2022-12-27T07:53:38.490Z,3.70
2022-12-27T07:56:40.229Z,3.80
2022-12-27T07:59:41.916Z,3.90
2022-12-27T08:02:43.564Z,4.00
2022-12-27T08:05:49.472Z,4.10
2022-12-27T08:08:54.005Z,4.20
2022-12-27T08:11:55.959Z,4.30
2022-12-27T08:14:57.709Z,4.40
2022-12-27T08:17:59.457Z,4.50
2022-12-27T08:21:01.116Z,4.50
2022-12-27T08:24:02.805Z,4.60
2022-12-27T08:27:04.872Z,4.70
2022-12-27T08:30:07.360Z,4.80
2022-12-27T08:33:10.124Z,4.90
2022-12-27T08:36:53.018Z,5.20
2022-12-27T08:39:34.682Z,5.50
2022-12-27T08:42:36.334Z,5.70
2022-12-27T08:45:39.621Z,5.50
2022-12-27T08:48:41.416Z,5.40
2022-12-27T08:51:43.132Z,5.60
2022-12-27T08:54:44.795Z,5.90
2022-12-27T08:57:46.450Z,5.70
2022-12-27T09:00:48.265Z,5.50
2022-12-27T09:03:49.935Z,5.70
2022-12-27T09:06:51.602Z,5.60
2022-12-27T09:09:53.300Z,5.60
2022-12-27T09:12:55.019Z,5.80
2022-12-27T09:15:56.903Z,6.00
2022-12-27T09:18:59.992Z,6.50
2022-12-27T09:22:02.316Z,6.50
2022-12-27T09:25:04.802Z,6.60
2022-12-27T09:28:06.900Z,6.70
2022-12-27T09:31:10.813Z,7.00
2022-12-27T09:34:12.745Z,7.20
2022-12-27T09:37:14.396Z,7.50
2022-12-27T09:40:19.680Z,8.10
2022-12-27T09:43:32.103Z,8.60
2022-12-27T09:46:58.922Z,9.00
2022-12-27T09:50:10.550Z,8.40
2022-12-27T09:53:36.874Z,8.60
2022-12-27T09:57:09.497Z,9.00
2022-12-27T10:00:05.655Z,9.50
2022-12-27T10:03:07.421Z,9.70
2022-12-27T10:06:25.654Z,9.80
2022-12-27T10:10:02.514Z,10.10
2022-12-27T10:13:27.431Z,9.90
2022-12-27T10:16:52.769Z,9.30
2022-12-27T10:20:12.318Z,9.50
2022-12-27T10:23:19.663Z,10.00
2022-12-27T10:26:21.861Z,10.40
2022-12-27T10:29:25.906Z,11.10
2022-12-27T10:32:27.607Z,11.40
2022-12-27T10:35:30.283Z,11.30
2022-12-27T10:38:33.628Z,11.00
2022-12-27T10:42:15.226Z,11.70
2022-12-27T10:45:36.454Z,10.70
2022-12-27T10:49:11.224Z,11.30
2022-12-27T10:52:10.532Z,11.80
2022-12-27T10:55:35.853Z,11.90
2022-12-27T10:58:40.715Z,10.00
2022-12-27T11:01:43.936Z,10.70
2022-12-27T11:05:01.090Z,11.00
2022-12-27T11:08:20.474Z,9.60
2022-12-27T11:11:25.488Z,9.80
2022-12-27T11:14:27.142Z,9.20
2022-12-27T11:17:35.504Z,8.40
2022-12-27T11:20:47.626Z,8.50
2022-12-27T11:23:53.557Z,8.80
2022-12-27T11:26:59.137Z,8.90
2022-12-27T11:30:01.207Z,8.90
2022-12-27T11:33:15.068Z,8.90
2022-12-27T11:36:37.206Z,9.50
2022-12-27T11:40:12.990Z,9.40
2022-12-27T11:43:17.663Z,9.70
2022-12-27T11:46:30.824Z,9.90
2022-12-27T11:49:55.794Z,9.50
2022-12-27T11:53:26.322Z,8.40
2022-12-27T11:56:30.785Z,8.30
2022-12-27T12:00:05.894Z,8.30
2022-12-27T12:03:38.631Z,7.80
2022-12-27T12:07:07.530Z,7.90
2022-12-27T12:10:35.865Z,8.00
2022-12-27T12:14:13.873Z,8.50
2022-12-27T12:17:50.832Z,8.30
2022-12-27T12:21:32.400Z,8.40
2022-12-27T12:24:57.231Z,8.50
2022-12-27T12:28:57.721Z,8.10
2022-12-27T12:32:30.229Z,8.40
2022-12-27T12:36:00.042Z,8.60
2022-12-27T12:39:41.597Z,8.80
2022-12-27T12:43:14.852Z,9.00
2022-12-27T12:46:44.016Z,9.10
2022-12-27T12:50:21.590Z,9.00
2022-12-27T12:53:50.801Z,8.90
2022-12-27T12:57:32.328Z,8.90
2022-12-27T13:00:59.634Z,9.10
2022-12-27T13:04:28.453Z,9.00
2022-12-27T13:07:41.266Z,8.80
2022-12-27T13:11:11.972Z,8.60
2022-12-27T13:14:29.724Z,8.60
2022-12-27T13:17:40.133Z,8.50
2022-12-27T13:21:05.416Z,8.30
2022-12-27T13:24:23.750Z,8.20
2022-12-27T13:27:54.033Z,8.30
2022-12-27T13:31:22.685Z,8.30
2022-12-27T13:35:04.476Z,8.00
2022-12-27T13:38:32.287Z,7.90
2022-12-27T13:41:50.128Z,7.80
2022-12-27T13:45:22.655Z,7.70
2022-12-27T13:49:00.312Z,7.60
2022-12-27T13:52:32.150Z,7.40
2022-12-27T13:55:55.201Z,7.50
2022-12-27T13:59:37.022Z,7.60
2022-12-27T14:03:09.760Z,7.50
2022-12-27T14:06:51.365Z,7.60
2022-12-27T14:10:08.763Z,7.50
2022-12-27T14:13:11.524Z,7.60
2022-12-27T14:16:33.222Z,7.80
2022-12-27T14:20:00.713Z,7.70
2022-12-27T14:23:31.616Z,7.70
2022-12-27T14:27:05.803Z,7.60
2022-12-27T14:30:47.474Z,7.50
2022-12-27T14:34:26.565Z,7.30
2022-12-27T14:37:47.950Z,7.10
2022-12-27T14:41:18.810Z,6.90
2022-12-27T14:44:48.633Z,7.00
2022-12-27T14:48:30.639Z,6.90
2022-12-27T14:52:05.960Z,6.80
2022-12-27T14:55:35.254Z,6.80
2022-12-27T14:59:03.441Z,6.80
2022-12-27T15:02:45.085Z,6.80
2022-12-27T15:06:08.170Z,6.80
2022-12-27T15:09:49.714Z,6.70
2022-12-27T15:13:31.239Z,6.60
2022-12-27T15:17:05.683Z,6.50
2022-12-27T15:20:25.894Z,6.50
2022-12-27T15:23:47.376Z,6.40
2022-12-27T15:27:19.307Z,6.30
2022-12-27T15:30:47.139Z,6.20
2022-12-27T15:34:06.836Z,6.00
2022-12-27T15:37:48.435Z,6.00
2022-12-27T15:41:15.407Z,5.80
2022-12-27T15:44:33.964Z,5.50
2022-12-27T15:48:15.619Z,5.50
2022-12-27T15:51:41.611Z,5.40
2022-12-27T15:54:53.710Z,5.40
2022-12-27T15:58:18.687Z,5.40
2022-12-27T16:01:29.167Z,5.40
2022-12-27T16:04:47.524Z,5.40
2022-12-27T16:07:52.940Z,5.30
2022-12-27T16:10:56.368Z,5.20
2022-12-27T16:14:34.089Z,5.30
2022-12-27T16:17:52.277Z,5.30
2022-12-27T16:21:03.462Z,5.30
2022-12-27T16:24:16.768Z,5.30
2022-12-27T16:27:29.019Z,5.20
2022-12-27T16:30:49.613Z,5.20
2022-12-27T16:33:53.137Z,5.30
2022-12-27T16:36:57.859Z,5.30
2022-12-27T16:40:21.563Z,5.30
2022-12-27T16:43:41.458Z,5.20
2022-12-27T16:47:08.352Z,5.10
2022-12-27T16:50:40.474Z,5.00
2022-12-27T16:54:05.881Z,4.90
2022-12-27T16:57:23.825Z,4.90
